Terminal Aerodrome Forecast
Issued by NWS Nashville, TN

Home | Current Version | Previous Version | Text Only | Print | Product List | Glossary On
Versions: 1 2 3 4 5 6 7 8 9 10 11 12 13 14 15 16 17 18 19 20 21 22 23 24 25 26 27 28 29 30
000
FTUS44 KOHX 291900 AAA
TAFCSV
TAF AMD
KCSV 291926Z 2919/3018 22010G22KT P6SM SKC
     FM292200 25010G20KT P6SM OVC040
     FM300300 32011KT P6SM OVC030
     FM300900 32007KT P6SM OVC020
     FM301600 36009KT P6SM BKN025=

USA.gov is the U.S. government's official web portal to all federal, state and local government web resources and services.